createdAt,value
2019-02-06T00:01:36.641Z,44.83
2019-02-06T00:04:05.600Z,47.10
2019-02-06T00:06:35.105Z,43.25
2019-02-06T00:09:07.084Z,42.03
2019-02-06T00:11:36.373Z,51.00
2019-02-06T00:14:19.093Z,45.30
2019-02-06T00:16:48.379Z,46.48
2019-02-06T00:19:17.719Z,62.58
2019-02-06T00:21:47.027Z,46.97
2019-02-06T00:24:15.983Z,45.35
2019-02-06T00:29:56.353Z,44.23
2019-02-06T00:32:25.280Z,46.95
2019-02-06T00:34:54.188Z,47.53
2019-02-06T00:37:23.080Z,52.70
2019-02-06T00:39:52.318Z,45.38
2019-02-06T00:42:21.252Z,41.48
2019-02-06T00:44:50.168Z,50.67
2019-02-06T00:47:19.097Z,49.65
2019-02-06T00:50:06.787Z,53.65
2019-02-06T00:52:36.250Z,48.00
2019-02-06T00:55:05.239Z,52.75
2019-02-06T00:57:41.937Z,46.95
2019-02-06T01:00:14.407Z,48.08
2019-02-06T01:03:02.699Z,47.83
2019-02-06T01:05:38.390Z,54.27
2019-02-06T01:08:02.290Z,54.48
2019-02-06T01:10:56.436Z,52.53
2019-02-06T01:13:25.390Z,56.77
2019-02-06T01:15:54.723Z,54.65
2019-02-06T01:18:24.040Z,51.60
2019-02-06T01:20:52.989Z,60.33
2019-02-06T01:23:22.314Z,56.20
2019-02-06T01:25:51.713Z,60.80
2019-02-06T01:28:21.565Z,54.53
2019-02-06T01:31:03.033Z,54.97
2019-02-06T01:33:31.983Z,49.77
2019-02-06T01:36:00.974Z,54.10
2019-02-06T01:38:29.879Z,53.60
2019-02-06T01:40:58.872Z,54.60
2019-02-06T01:43:27.826Z,55.67
2019-02-06T01:45:56.826Z,58.17
2019-02-06T01:48:25.747Z,57.23
2019-02-06T01:50:54.670Z,54.42
2019-02-06T01:53:23.633Z,57.62
2019-02-06T01:56:37.642Z,55.15
2019-02-06T01:59:06.567Z,53.87
2019-02-06T02:01:35.572Z,66.20
2019-02-06T02:04:04.887Z,58.10
2019-02-06T02:06:33.823Z,53.83
2019-02-06T02:09:04.340Z,58.38
2019-02-06T02:11:33.258Z,52.45
2019-02-06T02:14:23.066Z,57.38
2019-02-06T02:16:51.994Z,58.45
2019-02-06T02:19:20.894Z,52.43
2019-02-06T02:21:49.952Z,58.02
2019-02-06T02:24:21.623Z,60.83
2019-02-06T02:26:50.515Z,54.50
2019-02-06T02:29:19.484Z,57.60
2019-02-06T02:31:48.705Z,58.83
2019-02-06T02:34:17.657Z,51.58
2019-02-06T02:36:46.653Z,63.98
2019-02-06T02:39:15.958Z,54.30
2019-02-06T02:41:44.917Z,52.62
2019-02-06T02:44:14.444Z,49.38
2019-02-06T02:46:43.880Z,53.68
2019-02-06T02:49:13.176Z,57.43
2019-02-06T02:51:44.224Z,60.58
2019-02-06T02:54:13.026Z,53.68
2019-02-06T02:56:41.951Z,56.30
2019-02-06T02:59:11.332Z,59.40
2019-02-06T03:01:51.623Z,49.70
2019-02-06T03:04:32.156Z,50.48
2019-02-06T03:07:01.078Z,54.18
2019-02-06T03:09:30.401Z,50.67
2019-02-06T03:11:59.375Z,51.77
2019-02-06T03:14:28.311Z,46.77
2019-02-06T03:17:03.515Z,55.70
2019-02-06T03:19:32.827Z,49.65
2019-02-06T03:22:01.714Z,50.58
2019-02-06T03:24:30.641Z,55.73
2019-02-06T03:26:59.920Z,47.70
2019-02-06T03:29:29.315Z,48.68
2019-02-06T03:31:58.217Z,45.20
2019-02-06T03:34:27.123Z,51.25
2019-02-06T03:36:56.065Z,50.43
2019-02-06T03:39:25.449Z,52.70
2019-02-06T03:41:54.793Z,44.23
2019-02-06T03:44:24.086Z,51.90
2019-02-06T03:46:53.138Z,49.83
2019-02-06T03:49:22.447Z,50.95
2019-02-06T03:51:51.388Z,46.20
2019-02-06T03:54:20.862Z,45.33
2019-02-06T03:56:50.197Z,51.85
2019-02-06T03:59:19.145Z,50.98
2019-02-06T04:01:48.070Z,43.90
2019-02-06T04:04:17.029Z,46.73
2019-02-06T04:06:54.978Z,46.55
2019-02-06T04:09:16.982Z,49.58
2019-02-06T04:11:46.359Z,46.10
2019-02-06T04:14:15.271Z,46.68
2019-02-06T04:16:44.276Z,47.35
2019-02-06T04:19:13.254Z,47.83
2019-02-06T04:21:43.101Z,46.42
2019-02-06T04:24:12.054Z,50.73
2019-02-06T04:26:41.677Z,49.88
2019-02-06T04:29:23.159Z,42.35
2019-02-06T04:31:52.079Z,44.48
2019-02-06T04:34:21.113Z,43.25
2019-02-06T04:36:50.184Z,42.78
2019-02-06T04:39:26.910Z,47.58
2019-02-06T04:42:18.746Z,44.67
2019-02-06T04:44:48.452Z,44.85
2019-02-06T04:47:17.758Z,47.62
2019-02-06T04:49:47.317Z,42.55
2019-02-06T04:52:16.729Z,46.95
2019-02-06T04:54:45.632Z,43.23
2019-02-06T04:57:14.539Z,53.65
2019-02-06T04:59:54.637Z,46.55
2019-02-06T05:02:23.883Z,49.70
2019-02-06T05:04:52.885Z,44.67
2019-02-06T05:07:21.807Z,41.58
2019-02-06T05:09:51.149Z,46.13
2019-02-06T05:12:20.471Z,45.90
2019-02-06T05:14:52.559Z,48.48
2019-02-06T05:17:28.015Z,51.50
2019-02-06T05:19:57.002Z,46.68
2019-02-06T05:22:43.270Z,47.53
2019-02-06T05:25:12.300Z,54.45
2019-02-06T05:27:41.549Z,50.03
2019-02-06T05:30:16.642Z,44.10
2019-02-06T05:32:45.571Z,43.02
2019-02-06T05:35:14.505Z,47.58
2019-02-06T05:37:50.058Z,46.55
2019-02-06T05:40:19.103Z,47.50
2019-02-06T05:42:48.347Z,47.53
2019-02-06T05:45:17.377Z,45.15
2019-02-06T05:48:07.602Z,58.73
2019-02-06T05:50:41.773Z,46.73
2019-02-06T05:53:11.142Z,50.98
2019-02-06T05:55:40.586Z,45.35
2019-02-06T05:58:09.583Z,47.80
2019-02-06T06:00:42.509Z,44.83
2019-02-06T06:03:11.468Z,54.08
2019-02-06T06:05:40.860Z,46.25
2019-02-06T06:08:10.218Z,41.50
2019-02-06T06:10:39.146Z,49.93
2019-02-06T06:13:08.093Z,46.25
2019-02-06T06:15:37.054Z,44.90
2019-02-06T06:18:05.962Z,46.05
2019-02-06T06:20:34.903Z,47.20
2019-02-06T06:23:14.212Z,46.48
2019-02-06T06:25:43.166Z,42.35
2019-02-06T06:28:12.048Z,39.73
2019-02-06T06:30:40.953Z,46.42
2019-02-06T06:33:10.219Z,45.30
2019-02-06T06:35:39.104Z,48.20
2019-02-06T06:38:08.372Z,45.28
2019-02-06T06:40:37.694Z,41.88
2019-02-06T06:43:06.661Z,40.95
2019-02-06T06:45:35.597Z,39.98
2019-02-06T06:48:05.875Z,41.15
2019-02-06T06:50:35.709Z,39.13
2019-02-06T06:53:04.998Z,43.17
2019-02-06T06:55:35.184Z,40.15
2019-02-06T06:58:05.120Z,45.23
2019-02-06T07:00:34.536Z,42.20
2019-02-06T07:03:31.185Z,46.15
2019-02-06T07:06:00.504Z,46.37
2019-02-06T07:08:29.486Z,42.43
2019-02-06T07:10:58.340Z,46.42
2019-02-06T07:13:27.401Z,49.33
2019-02-06T07:15:56.342Z,41.77
2019-02-06T07:18:25.823Z,53.30
2019-02-06T07:20:54.749Z,46.30
2019-02-06T07:23:47.822Z,54.58
2019-02-06T07:26:16.723Z,47.83
2019-02-06T07:31:57.243Z,45.05
2019-02-06T07:34:26.257Z,53.30
2019-02-06T07:36:55.619Z,46.05
2019-02-06T07:39:24.892Z,40.12
2019-02-06T07:41:53.990Z,43.13
2019-02-06T07:44:22.938Z,43.75
2019-02-06T07:46:51.889Z,48.35
2019-02-06T07:49:21.148Z,44.70
2019-02-06T07:51:50.767Z,44.63
2019-02-06T07:54:19.801Z,44.27
2019-02-06T07:56:48.808Z,52.62
2019-02-06T07:59:17.788Z,41.73
2019-02-06T08:01:46.719Z,39.98
2019-02-06T08:04:34.700Z,41.90
2019-02-06T08:07:03.696Z,44.73
2019-02-06T08:09:32.950Z,42.50
2019-02-06T08:12:01.933Z,39.93
2019-02-06T08:14:30.872Z,44.53
2019-02-06T08:17:00.187Z,39.80
2019-02-06T08:19:29.454Z,38.67
2019-02-06T08:21:58.374Z,39.60
2019-02-06T08:24:27.302Z,46.53
2019-02-06T08:26:56.289Z,42.65
2019-02-06T08:29:25.262Z,36.40
2019-02-06T08:31:54.156Z,40.73
2019-02-06T08:34:23.910Z,39.03
2019-02-06T08:36:52.855Z,40.70
2019-02-06T08:39:21.754Z,44.97
2019-02-06T08:41:50.689Z,41.90
2019-02-06T08:44:19.967Z,38.20
2019-02-06T08:46:49.282Z,37.83
2019-02-06T08:49:18.974Z,36.97
2019-02-06T08:51:48.280Z,40.70
2019-02-06T08:54:20.185Z,38.00
2019-02-06T08:56:47.803Z,35.70
2019-02-06T08:59:16.703Z,40.57
2019-02-06T09:01:45.713Z,36.90
2019-02-06T09:04:14.690Z,39.63
2019-02-06T09:06:44.086Z,36.30
2019-02-06T09:09:13.113Z,39.00
2019-02-06T09:11:42.028Z,32.93
2019-02-06T09:14:11.465Z,41.63
2019-02-06T09:16:40.419Z,45.93
2019-02-06T09:19:18.577Z,39.60
2019-02-06T09:21:47.506Z,34.03
2019-02-06T09:24:17.263Z,43.90
2019-02-06T09:26:46.576Z,35.27
2019-02-06T09:29:15.585Z,37.27
2019-02-06T09:31:45.270Z,37.30
2019-02-06T09:34:14.547Z,35.63
2019-02-06T09:36:43.443Z,40.67
2019-02-06T09:39:12.484Z,36.30
2019-02-06T09:41:41.383Z,42.33
2019-02-06T09:44:34.653Z,39.13
2019-02-06T09:47:03.702Z,39.30
2019-02-06T09:49:51.653Z,41.63
2019-02-06T09:52:20.921Z,37.43
2019-02-06T09:54:50.249Z,40.37
2019-02-06T09:57:19.876Z,37.20
2019-02-06T09:59:49.013Z,36.30
2019-02-06T10:02:18.262Z,41.63
2019-02-06T10:04:47.154Z,40.10
2019-02-06T10:07:16.457Z,39.30
2019-02-06T10:09:45.426Z,36.70
2019-02-06T10:12:15.036Z,37.10
2019-02-06T10:14:47.613Z,39.60
2019-02-06T10:17:16.516Z,33.53
2019-02-06T10:19:45.539Z,34.53
2019-02-06T10:22:14.794Z,44.87
2019-02-06T10:24:43.731Z,37.07
2019-02-06T10:27:12.937Z,44.77
2019-02-06T10:29:42.249Z,37.33
2019-02-06T10:32:11.158Z,39.47
2019-02-06T10:34:40.072Z,40.13
2019-02-06T10:37:09.779Z,40.73
2019-02-06T10:39:38.669Z,38.50
2019-02-06T10:42:08.101Z,34.13
2019-02-06T10:44:37.349Z,38.13
2019-02-06T10:47:06.238Z,32.17
2019-02-06T10:49:59.343Z,38.90
2019-02-06T10:52:49.594Z,41.80
2019-02-06T10:55:18.635Z,35.27
2019-02-06T10:57:47.540Z,40.63
2019-02-06T11:00:18.583Z,36.07
2019-02-06T11:02:47.839Z,37.80
2019-02-06T11:05:17.130Z,32.53
2019-02-06T11:07:46.376Z,34.77
2019-02-06T11:10:16.801Z,40.50
2019-02-06T11:12:45.768Z,32.97
2019-02-06T11:15:15.848Z,35.87
2019-02-06T11:17:44.891Z,37.30
2019-02-06T11:20:15.510Z,32.10
2019-02-06T11:22:44.789Z,36.33
2019-02-06T11:25:15.080Z,35.77
2019-02-06T11:27:44.317Z,31.23
2019-02-06T11:30:14.934Z,39.67
2019-02-06T11:32:56.163Z,36.00
2019-02-06T11:35:25.068Z,32.20
2019-02-06T11:37:54.097Z,31.60
2019-02-06T11:40:29.043Z,33.50
2019-02-06T11:42:57.915Z,28.90
2019-02-06T11:45:28.607Z,30.07
2019-02-06T11:47:57.522Z,35.13
2019-02-06T11:50:38.443Z,35.13
2019-02-06T11:53:15.630Z,31.50
2019-02-06T11:55:44.917Z,29.17
2019-02-06T11:58:13.824Z,36.23
2019-02-06T12:01:14.371Z,30.33
2019-02-06T12:03:43.239Z,32.67
2019-02-06T12:09:22.611Z,33.13
2019-02-06T12:11:51.591Z,35.60
2019-02-06T12:14:20.879Z,31.57
2019-02-06T12:16:49.767Z,30.90
2019-02-06T12:19:19.064Z,32.73
2019-02-06T12:22:02.403Z,34.33
2019-02-06T12:24:31.626Z,31.60
2019-02-06T12:27:00.928Z,27.90
2019-02-06T12:29:29.823Z,30.77
2019-02-06T12:31:58.811Z,36.20
2019-02-06T12:34:28.077Z,32.13
2019-02-06T12:36:57.073Z,28.73
2019-02-06T12:39:25.941Z,25.07
2019-02-06T12:42:29.536Z,28.57
2019-02-06T12:44:59.199Z,28.03
2019-02-06T12:47:28.220Z,31.53
2019-02-06T12:49:57.111Z,27.50
2019-02-06T12:52:26.493Z,29.10
2019-02-06T12:54:55.892Z,35.03
2019-02-06T12:57:38.544Z,33.67
2019-02-06T13:00:10.785Z,26.80
2019-02-06T13:02:40.050Z,30.90
2019-02-06T13:05:09.657Z,26.83
2019-02-06T13:07:38.871Z,33.30
2019-02-06T13:10:08.053Z,27.03
2019-02-06T13:12:36.967Z,25.77
2019-02-06T13:15:06.559Z,28.33
2019-02-06T13:17:35.847Z,27.73
2019-02-06T13:20:05.862Z,28.73
2019-02-06T13:22:35.160Z,26.70
2019-02-06T13:25:04.775Z,25.80
2019-02-06T13:27:33.663Z,24.87
2019-02-06T13:30:02.595Z,26.97
2019-02-06T13:32:32.381Z,27.60
2019-02-06T13:35:01.348Z,29.70
2019-02-06T13:37:30.214Z,22.00
2019-02-06T13:40:03.400Z,39.90
2019-02-06T13:42:32.281Z,27.70
2019-02-06T13:45:01.590Z,23.10
2019-02-06T13:47:30.533Z,23.70
2019-02-06T13:50:00.007Z,24.20
2019-02-06T13:52:29.453Z,24.43
2019-02-06T13:54:58.352Z,23.00
2019-02-06T13:57:33.710Z,19.00
2019-02-06T13:59:58.493Z,21.70
2019-02-06T14:02:27.787Z,21.97
2019-02-06T14:04:56.722Z,24.67
2019-02-06T14:07:37.410Z,23.93
2019-02-06T14:10:08.072Z,22.30
2019-02-06T14:12:37.247Z,23.37
2019-02-06T14:15:06.856Z,20.80
2019-02-06T14:17:37.365Z,20.87
2019-02-06T14:20:08.245Z,27.63
2019-02-06T14:22:37.173Z,18.57
2019-02-06T14:25:11.315Z,22.90
2019-02-06T14:27:59.287Z,21.23
2019-02-06T14:31:05.372Z,17.40
2019-02-06T14:33:49.751Z,20.73
2019-02-06T14:36:31.202Z,17.60
2019-02-06T14:39:20.145Z,15.27
2019-02-06T14:42:08.236Z,15.00
2019-02-06T14:45:02.476Z,19.37
2019-02-06T14:47:54.073Z,19.60
2019-02-06T14:50:45.583Z,15.00
2019-02-06T14:53:41.924Z,17.60
2019-02-06T14:56:30.030Z,14.00
2019-02-06T14:59:19.953Z,15.27
2019-02-06T15:02:02.198Z,16.13
2019-02-06T15:04:44.812Z,16.00
2019-02-06T15:07:16.930Z,17.17
2019-02-06T15:10:07.232Z,17.03
2019-02-06T15:12:40.040Z,17.40
2019-02-06T15:18:37.183Z,13.13
2019-02-06T15:21:31.175Z,20.37
2019-02-06T15:24:06.808Z,22.07
2019-02-06T15:26:53.974Z,16.27
2019-02-06T15:29:57.427Z,20.73
2019-02-06T15:32:45.580Z,14.50
2019-02-06T15:35:30.707Z,14.90
2019-02-06T15:38:13.911Z,16.37
2019-02-06T15:40:54.739Z,20.30
2019-02-06T15:43:53.083Z,14.80
2019-02-06T15:46:32.269Z,16.33
2019-02-06T15:49:07.398Z,15.30
2019-02-06T15:51:50.895Z,13.60
2019-02-06T15:54:42.048Z,13.90
2019-02-06T15:57:38.900Z,13.40
2019-02-06T16:00:18.663Z,19.03
2019-02-06T16:02:55.804Z,19.70
2019-02-06T16:05:49.658Z,25.80
2019-02-06T16:08:28.172Z,22.10
2019-02-06T16:11:17.116Z,18.97
2019-02-06T16:14:17.242Z,20.47
2019-02-06T16:17:20.886Z,17.63
2019-02-06T16:20:13.154Z,22.90
2019-02-06T16:22:46.695Z,19.37
2019-02-06T16:25:22.686Z,16.70
2019-02-06T16:28:10.641Z,16.57
2019-02-06T16:31:09.395Z,17.20
2019-02-06T16:34:00.831Z,28.93
2019-02-06T16:40:23.303Z,18.37
2019-02-06T16:43:10.000Z,17.30
2019-02-06T16:46:03.826Z,19.83
2019-02-06T16:48:58.444Z,22.10
2019-02-06T16:51:38.927Z,23.27
2019-02-06T16:54:26.518Z,21.33
2019-02-06T16:57:17.678Z,24.23
2019-02-06T16:59:57.037Z,21.40
2019-02-06T17:02:43.989Z,28.07
2019-02-06T17:05:30.946Z,19.77
2019-02-06T17:08:08.554Z,28.33
2019-02-06T17:10:55.886Z,28.33
2019-02-06T17:17:11.904Z,22.03
2019-02-06T17:19:51.316Z,24.40
2019-02-06T17:22:30.439Z,28.00
2019-02-06T17:25:24.283Z,27.37
2019-02-06T17:28:20.546Z,27.17
2019-02-06T17:31:08.529Z,22.50
2019-02-06T17:33:59.813Z,37.13
2019-02-06T17:36:50.583Z,33.27
2019-02-06T17:39:41.348Z,30.10
2019-02-06T17:42:29.361Z,34.33
2019-02-06T17:45:07.944Z,38.77
2019-02-06T17:47:46.890Z,39.23
2019-02-06T17:50:31.578Z,32.83
2019-02-06T17:53:09.607Z,28.27
2019-02-06T17:55:38.487Z,27.00
2019-02-06T17:58:20.721Z,36.20
2019-02-06T18:00:51.695Z,38.50
2019-02-06T18:03:20.892Z,50.80
2019-02-06T18:05:50.560Z,55.80
2019-02-06T18:08:19.801Z,48.53
2019-02-06T18:10:48.773Z,54.50
2019-02-06T18:13:17.882Z,44.53
2019-02-06T18:15:46.878Z,33.97
2019-02-06T18:18:15.774Z,33.00
2019-02-06T18:20:45.065Z,31.50
2019-02-06T18:23:13.988Z,31.50
2019-02-06T18:25:43.258Z,39.80
2019-02-06T18:28:12.405Z,33.10
2019-02-06T18:30:44.214Z,25.47
2019-02-06T18:33:13.799Z,39.27
2019-02-06T18:35:43.066Z,35.30
2019-02-06T18:38:12.359Z,36.80
2019-02-06T18:40:51.624Z,30.90
2019-02-06T18:43:20.507Z,26.70
2019-02-06T18:45:49.426Z,26.97
2019-02-06T18:48:21.166Z,23.90
2019-02-06T18:50:50.287Z,30.60
2019-02-06T18:53:19.379Z,36.63
2019-02-06T18:55:51.141Z,31.67
2019-02-06T18:58:19.601Z,29.40
2019-02-06T19:00:48.499Z,29.37
2019-02-06T19:03:19.074Z,27.00
2019-02-06T19:05:48.207Z,31.17
2019-02-06T19:08:23.252Z,33.17
2019-02-06T19:10:52.872Z,28.43
2019-02-06T19:13:22.033Z,35.67
2019-02-06T19:16:06.177Z,30.73
2019-02-06T19:18:37.206Z,30.90
2019-02-06T19:21:05.714Z,36.53
2019-02-06T19:23:35.096Z,39.53
2019-02-06T19:26:03.959Z,27.70
2019-02-06T19:28:50.073Z,30.57
2019-02-06T19:31:18.971Z,32.77
2019-02-06T19:33:47.910Z,33.43
2019-02-06T19:36:16.839Z,38.00
2019-02-06T19:38:46.187Z,35.50
2019-02-06T19:41:23.526Z,41.10
2019-02-06T19:43:52.755Z,39.47
2019-02-06T19:46:21.607Z,38.73
2019-02-06T19:48:50.627Z,40.17
2019-02-06T19:51:19.511Z,39.60
2019-02-06T19:53:48.662Z,34.70
2019-02-06T19:56:17.558Z,40.40
2019-02-06T19:58:53.429Z,37.13
2019-02-06T20:01:22.361Z,42.70
2019-02-06T20:03:52.765Z,44.57
2019-02-06T20:06:34.139Z,43.90
2019-02-06T20:09:09.855Z,65.97
2019-02-06T20:11:40.963Z,66.80
2019-02-06T20:14:09.873Z,70.00
2019-02-06T20:16:39.107Z,61.10
2019-02-06T20:19:08.399Z,61.23
2019-02-06T20:21:37.297Z,51.30
2019-02-06T20:24:06.570Z,49.33
2019-02-06T20:26:44.719Z,46.73
2019-02-06T20:29:22.730Z,42.00
2019-02-06T20:31:51.648Z,36.60
2019-02-06T20:34:20.579Z,47.20
2019-02-06T20:36:49.777Z,43.03
2019-02-06T20:39:31.081Z,41.97
2019-02-06T20:42:41.780Z,35.17
2019-02-06T20:45:23.031Z,41.93
2019-02-06T20:47:55.566Z,38.23
2019-02-06T20:50:45.285Z,39.23
2019-02-06T20:53:14.205Z,39.70
2019-02-06T20:55:44.501Z,39.60
2019-02-06T20:58:27.880Z,43.83
2019-02-06T21:00:56.778Z,41.77
2019-02-06T21:03:25.954Z,37.90
2019-02-06T21:05:58.097Z,35.33
2019-02-06T21:08:26.987Z,33.47
2019-02-06T21:10:56.364Z,39.40
2019-02-06T21:13:32.730Z,36.25
2019-02-06T21:15:55.830Z,35.87
2019-02-06T21:18:24.954Z,37.63
2019-02-06T21:20:54.223Z,44.43
2019-02-06T21:23:23.371Z,45.10
2019-02-06T21:25:53.116Z,41.90
2019-02-06T21:28:21.989Z,44.17
2019-02-06T21:30:53.115Z,45.17
2019-02-06T21:33:22.805Z,37.63
2019-02-06T21:35:53.868Z,43.50
2019-02-06T21:38:22.762Z,49.83
2019-02-06T21:40:51.740Z,42.23
2019-02-06T21:43:21.019Z,42.13
2019-02-06T21:45:49.923Z,40.40
2019-02-06T21:48:19.220Z,42.20
2019-02-06T21:50:48.141Z,47.50
2019-02-06T21:53:17.082Z,49.73
2019-02-06T21:58:59.994Z,44.60
2019-02-06T22:01:28.929Z,58.40
2019-02-06T22:03:58.294Z,77.93
2019-02-06T22:06:30.331Z,51.83
2019-02-06T22:08:59.501Z,46.27
2019-02-06T22:11:28.728Z,50.30
2019-02-06T22:13:57.648Z,48.53
2019-02-06T22:16:26.598Z,45.03
2019-02-06T22:18:55.905Z,52.00
2019-02-06T22:21:24.776Z,44.20
2019-02-06T22:23:54.449Z,46.93
2019-02-06T22:26:23.396Z,43.50
2019-02-06T22:35:13.850Z,43.67
2019-02-06T22:37:43.446Z,48.97
2019-02-06T22:40:33.318Z,47.10
2019-02-06T22:43:02.619Z,52.27
2019-02-06T22:45:31.500Z,49.37
2019-02-06T22:48:01.321Z,51.37
2019-02-06T22:50:47.824Z,47.37
2019-02-06T22:53:16.761Z,59.43
2019-02-06T22:55:45.720Z,59.27
2019-02-06T22:58:21.510Z,53.93
2019-02-06T23:01:29.354Z,51.63
2019-02-06T23:07:29.485Z,61.10
2019-02-06T23:09:58.731Z,45.98
2019-02-06T23:12:51.642Z,51.57
2019-02-06T23:15:20.662Z,56.03
2019-02-06T23:17:49.689Z,45.92
2019-02-06T23:20:19.086Z,52.60
2019-02-06T23:23:15.398Z,54.83
2019-02-06T23:25:44.712Z,46.07
2019-02-06T23:28:14.290Z,56.58
2019-02-06T23:30:43.222Z,48.87
2019-02-06T23:33:12.115Z,51.65
2019-02-06T23:35:41.031Z,46.05
2019-02-06T23:38:10.200Z,44.67
2019-02-06T23:40:39.824Z,43.70
2019-02-06T23:46:19.680Z,43.85
2019-02-06T23:49:00.459Z,36.35
2019-02-06T23:52:03.195Z,38.17
2019-02-06T23:54:32.937Z,41.80
2019-02-06T23:57:02.389Z,39.00
2019-02-06T23:59:31.310Z,39.47
